Time;durP1;ratioP1;P1;durP2;ratioP2;P2;SDS_P1;SDS_P2;PMS_P1;PMS_P2;Temp;Humidity;BMP_temperature;BMP_pressure;BME280_temperature;BME280_humidity;BME280_pressure;Samples;Min_cycle;Max_cycle;Signal;HPM_P1;HPM_P2
2023/02/25 00:01:02;;;;;;;;;;;;;;;;;;4967160;28;20363;-46
2023/02/25 00:03:28;;;;;;;;;;;;;;;;;;4970574;28;19913;-45
2023/02/25 00:05:54;;;;;;;;;;;;;;;;;;4967979;28;20000;-45
2023/02/25 00:08:20;;;;;;;;;;;;;;;;;;4972787;28;19917;-45
2023/02/25 00:10:46;;;;;;;;;;;;;;;;;;4970047;28;19918;-44
2023/02/25 00:13:12;;;;;;;;;;;;;;;;;;4962743;28;20005;-45
2023/02/25 00:15:38;;;;;;;;;;;;;;;;;;4951828;28;20347;-44
2023/02/25 00:18:04;;;;;;;;;;;;;;;;;;4946994;28;19914;-45
2023/02/25 00:20:29;;;;;;;;;;;;;;;;;;4955605;28;19910;-45
2023/02/25 00:22:56;;;;;;;;;;;;;;;;;;4954865;28;19914;-45
2023/02/25 00:25:22;;;;;;;;;;;;;;;;;;4956443;28;19947;-45
2023/02/25 00:27:48;;;;;;;;;;;;;;;;;;4956947;28;19914;-47
2023/02/25 00:30:14;;;;;;;;;;;;;;;;;;4953002;28;19929;-49
2023/02/25 00:32:40;;;;;;;;;;;;;;;;;;4950911;28;19915;-45
2023/02/25 00:35:11;;;;;;;;;;;;;;;;;;4953276;28;19921;-47
2023/02/25 00:37:37;;;;;;;;;;;;;;;;;;4956649;28;19917;-49
2023/02/25 00:40:07;;;;;;;;;;;;;;;;;;4953291;28;19910;-46
2023/02/25 00:42:33;;;;;;;;;;;;;;;;;;4958832;28;19964;-46
2023/02/25 00:44:59;;;;;;;;;;;;;;;;;;4954196;28;19910;-45
2023/02/25 00:47:25;;;;;;;;;;;;;;;;;;4952977;28;19914;-49
2023/02/25 00:49:51;;;;;;;;;;;;;;;;;;4951935;28;19910;-45
2023/02/25 00:52:17;;;;;;;;;;;;;;;;;;4951616;28;20280;-48
2023/02/25 00:54:43;;;;;;;;;;;;;;;;;;4958355;28;20004;-46
2023/02/25 00:57:09;;;;;;;;;;;;;;;;;;4959171;28;19910;-46
2023/02/25 00:59:35;;;;;;;;;;;;;;;;;;4958040;28;20367;-48
2023/02/25 01:02:00;;;;;;;;;;;;;;;;;;4954121;28;20398;-46
2023/02/25 01:04:26;;;;;;;;;;;;;;;;;;4953888;29;19960;-46
2023/02/25 01:06:53;;;;;;;;;;;;;;;;;;4954062;29;19911;-45
2023/02/25 01:09:19;;;;;;;;;;;;;;;;;;4953387;29;19942;-45
2023/02/25 01:11:45;;;;;;;;;;;;;;;;;;4960761;28;19938;-45
2023/02/25 01:14:10;;;;;;;;;;;;;;;;;;4954741;28;19914;-44
2023/02/25 01:16:36;;;;;;;;;;;;;;;;;;4958814;28;19910;-44
2023/02/25 01:19:02;;;;;;;;;;;;;;;;;;4963706;28;19992;-46
2023/02/25 01:21:28;;;;;;;;;;;;;;;;;;4959521;28;20005;-45
2023/02/25 01:23:57;;;;;;;;;;;;;;;;;;4960057;28;19917;-44
2023/02/25 01:26:23;;;;;;;;;;;;;;;;;;4955657;28;20384;-46
2023/02/25 01:28:49;;;;;;;;;;;;;;;;;;4961488;28;20075;-45
2023/02/25 01:31:15;;;;;;;;;;;;;;;;;;4958187;28;19910;-45
2023/02/25 01:33:42;;;;;;;;;;;;;;;;;;4951697;28;19918;-44
2023/02/25 01:36:08;;;;;;;;;;;;;;;;;;4953611;28;19990;-44
2023/02/25 01:38:34;;;;;;;;;;;;;;;;;;4954910;28;20351;-45
2023/02/25 01:41:00;;;;;;;;;;;;;;;;;;4955349;28;19969;-46
2023/02/25 01:43:27;;;;;;;;;;;;;;;;;;4967098;28;19914;-46
2023/02/25 01:45:53;;;;;;;;;;;;;;;;;;4951630;28;20260;-45
2023/02/25 01:48:19;;;;;;;;;;;;;;;;;;4947369;28;19922;-45
2023/02/25 01:50:44;;;;;;;;;;;;;;;;;;4951001;28;19956;-48
2023/02/25 01:53:10;;;;;;;;;;;;;;;;;;4956578;28;19923;-44
2023/02/25 01:55:36;;;;;;;;;;;;;;;;;;4958890;28;19910;-44
2023/02/25 01:58:02;;;;;;;;;;;;;;;;;;4959202;28;20314;-44
2023/02/25 02:00:28;;;;;;;;;;;;;;;;;;4952790;28;19917;-47
2023/02/25 02:02:54;;;;;;;;;;;;;;;;;;4952812;28;19910;-44
2023/02/25 02:05:20;;;;;;;;;;;;;;;;;;4945220;28;20360;-48
2023/02/25 02:07:46;;;;;;;;;;;;;;;;;;4955214;28;19918;-45
2023/02/25 02:10:12;;;;;;;;;;;;;;;;;;4950957;28;19969;-46
2023/02/25 02:12:37;;;;;;;;;;;;;;;;;;4961166;28;20013;-49
2023/02/25 02:15:03;;;;;;;;;;;;;;;;;;4956942;28;19921;-46
2023/02/25 02:17:29;;;;;;;;;;;;;;;;;;4952123;28;19996;-47
2023/02/25 02:19:55;;;;;;;;;;;;;;;;;;4949812;29;19914;-46
2023/02/25 02:22:22;;;;;;;;;;;;;;;;;;4951540;28;20013;-48
2023/02/25 02:24:50;;;;;;;;;;;;;;;;;;4954595;28;19910;-48
2023/02/25 02:27:15;;;;;;;;;;;;;;;;;;4951699;28;19907;-49
2023/02/25 02:29:44;;;;;;;;;;;;;;;;;;4952719;28;19958;-48
2023/02/25 02:32:10;;;;;;;;;;;;;;;;;;4952249;28;19985;-45
2023/02/25 02:34:36;;;;;;;;;;;;;;;;;;4952263;28;19922;-47
2023/02/25 02:37:01;;;;;;;;;;;;;;;;;;4952315;28;19914;-48
2023/02/25 02:39:27;;;;;;;;;;;;;;;;;;4954256;28;19989;-49
2023/02/25 02:41:53;;;;;;;;;;;;;;;;;;4952954;28;20037;-45
2023/02/25 02:44:19;;;;;;;;;;;;;;;;;;4955452;28;19930;-46
2023/02/25 02:46:45;;;;;;;;;;;;;;;;;;4961086;28;19910;-47
2023/02/25 02:49:11;;;;;;;;;;;;;;;;;;4957849;28;20479;-47
2023/02/25 02:51:37;;;;;;;;;;;;;;;;;;4957139;28;19910;-46
2023/02/25 02:54:02;;;;;;;;;;;;;;;;;;4953580;28;19914;-48
2023/02/25 02:56:28;;;;;;;;;;;;;;;;;;4957020;28;19922;-46
2023/02/25 02:58:54;;;;;;;;;;;;;;;;;;4958018;28;20020;-47
2023/02/25 03:01:20;;;;;;;;;;;;;;;;;;4956312;28;20402;-44
2023/02/25 03:03:46;;;;;;;;;;;;;;;;;;4956786;28;19914;-44
2023/02/25 03:06:12;;;;;;;;;;;;;;;;;;4953516;28;19907;-44
2023/02/25 03:08:38;;;;;;;;;;;;;;;;;;4958340;28;19933;-44
2023/02/25 03:11:04;;;;;;;;;;;;;;;;;;4956170;28;19965;-44
2023/02/25 03:13:30;;;;;;;;;;;;;;;;;;4967833;28;19969;-44
2023/02/25 03:15:56;;;;;;;;;;;;;;;;;;4974321;28;19918;-44
2023/02/25 03:18:22;;;;;;;;;;;;;;;;;;4976374;28;19914;-44
2023/02/25 03:20:48;;;;;;;;;;;;;;;;;;4971098;28;19956;-44
2023/02/25 03:23:14;;;;;;;;;;;;;;;;;;4975080;28;20439;-44
2023/02/25 03:25:46;;;;;;;;;;;;;;;;;;4971881;28;20010;-44
2023/02/25 03:28:12;;;;;;;;;;;;;;;;;;4971316;28;20458;-44
2023/02/25 03:30:38;;;;;;;;;;;;;;;;;;4975831;28;19989;-44
2023/02/25 03:33:03;;;;;;;;;;;;;;;;;;4974953;28;19918;-44
2023/02/25 03:35:29;;;;;;;;;;;;;;;;;;4972767;28;19925;-44
2023/02/25 03:37:55;;;;;;;;;;;;;;;;;;4975309;28;19909;-44
2023/02/25 03:40:21;;;;;;;;;;;;;;;;;;4975368;28;19950;-44
2023/02/25 03:42:47;;;;;;;;;;;;;;;;;;4975655;28;19910;-45
2023/02/25 03:45:13;;;;;;;;;;;;;;;;;;4974073;28;19906;-44
2023/02/25 03:47:39;;;;;;;;;;;;;;;;;;4971626;28;19914;-44
2023/02/25 03:50:05;;;;;;;;;;;;;;;;;;4974768;28;19913;-45
2023/02/25 03:52:31;;;;;;;;;;;;;;;;;;4971865;28;19918;-49
2023/02/25 03:54:57;;;;;;;;;;;;;;;;;;4968055;28;20316;-47
2023/02/25 03:57:26;;;;;;;;;;;;;;;;;;4975101;28;19952;-47
2023/02/25 03:59:55;;;;;;;;;;;;;;;;;;4975578;28;19910;-44
2023/02/25 04:02:21;;;;;;;;;;;;;;;;;;4974798;28;19914;-46
2023/02/25 04:04:46;;;;;;;;;;;;;;;;;;4974334;28;19965;-46
2023/02/25 04:07:12;;;;;;;;;;;;;;;;;;4973792;28;19906;-45
2023/02/25 04:09:38;;;;;;;;;;;;;;;;;;4974461;28;19910;-50
2023/02/25 04:12:06;;;;;;;;;;;;;;;;;;4974219;28;20275;-47
2023/02/25 04:14:32;;;;;;;;;;;;;;;;;;4973843;28;19925;-45
2023/02/25 04:16:58;;;;;;;;;;;;;;;;;;4972786;28;20275;-46
2023/02/25 04:19:23;;;;;;;;;;;;;;;;;;4974134;28;19965;-44
2023/02/25 04:21:49;;;;;;;;;;;;;;;;;;4974522;28;19916;-44
2023/02/25 04:24:15;;;;;;;;;;;;;;;;;;4973385;28;19914;-44
2023/02/25 04:26:41;;;;;;;;;;;;;;;;;;4974179;28;19957;-44
2023/02/25 04:29:07;;;;;;;;;;;;;;;;;;4971940;28;19934;-44
2023/02/25 04:31:33;;;;;;;;;;;;;;;;;;4973265;28;20005;-46
2023/02/25 04:33:59;;;;;;;;;;;;;;;;;;4973211;28;19980;-45
2023/02/25 04:36:25;;;;;;;;;;;;;;;;;;4973856;28;19918;-44
2023/02/25 04:38:50;;;;;;;;;;;;;;;;;;4973171;28;19925;-44
2023/02/25 04:41:16;;;;;;;;;;;;;;;;;;4973188;28;19910;-45
2023/02/25 04:43:44;;;;;;;;;;;;;;;;;;4974202;28;19910;-46
2023/02/25 04:46:10;;;;;;;;;;;;;;;;;;4971914;28;19918;-44
2023/02/25 04:48:37;;;;;;;;;;;;;;;;;;4974357;28;20287;-46
2023/02/25 04:51:03;;;;;;;;;;;;;;;;;;4970974;28;19941;-49
2023/02/25 04:53:29;;;;;;;;;;;;;;;;;;4975592;28;20028;-48
2023/02/25 04:55:55;;;;;;;;;;;;;;;;;;4976560;28;20263;-45
2023/02/25 04:58:21;;;;;;;;;;;;;;;;;;4974065;28;19917;-46
2023/02/25 05:00:47;;;;;;;;;;;;;;;;;;4973292;28;19980;-47
2023/02/25 05:03:13;;;;;;;;;;;;;;;;;;4973132;28;19960;-47
2023/02/25 05:05:38;;;;;;;;;;;;;;;;;;4973370;28;19914;-48
2023/02/25 05:08:04;;;;;;;;;;;;;;;;;;4973331;28;19910;-46
2023/02/25 05:10:30;;;;;;;;;;;;;;;;;;4967262;28;20018;-46
2023/02/25 05:12:56;;;;;;;;;;;;;;;;;;4975977;28;20295;-45
2023/02/25 05:15:22;;;;;;;;;;;;;;;;;;4973538;28;19956;-45
2023/02/25 05:17:48;;;;;;;;;;;;;;;;;;4974247;28;20285;-45
2023/02/25 05:20:14;;;;;;;;;;;;;;;;;;4967476;28;20009;-50
2023/02/25 05:22:39;;;;;;;;;;;;;;;;;;4973430;28;19914;-47
2023/02/25 05:25:06;;;;;;;;;;;;;;;;;;4972001;28;19910;-46
2023/02/25 05:27:32;;;;;;;;;;;;;;;;;;4970458;28;19949;-45
2023/02/25 05:29:58;;;;;;;;;;;;;;;;;;4971247;28;20009;-46
2023/02/25 05:32:24;;;;;;;;;;;;;;;;;;4972553;28;19997;-46
2023/02/25 05:34:50;;;;;;;;;;;;;;;;;;4972008;28;19977;-46
2023/02/25 05:37:16;;;;;;;;;;;;;;;;;;4972727;28;19910;-45
2023/02/25 05:39:42;;;;;;;;;;;;;;;;;;4972917;28;19968;-47
2023/02/25 05:42:07;;;;;;;;;;;;;;;;;;4971120;28;19910;-45
2023/02/25 05:44:34;;;;;;;;;;;;;;;;;;4972284;28;19956;-47
2023/02/25 05:46:59;;;;;;;;;;;;;;;;;;4971854;28;20441;-46
2023/02/25 05:49:25;;;;;;;;;;;;;;;;;;4972453;28;19910;-45
2023/02/25 05:51:51;;;;;;;;;;;;;;;;;;4972892;28;19997;-46
2023/02/25 05:54:17;;;;;;;;;;;;;;;;;;4970430;28;19918;-46
2023/02/25 05:56:44;;;;;;;;;;;;;;;;;;4972224;28;20310;-49
2023/02/25 05:59:09;;;;;;;;;;;;;;;;;;4972949;28;19928;-45
2023/02/25 06:01:35;;;;;;;;;;;;;;;;;;4976017;28;19910;-47
2023/02/25 06:04:01;;;;;;;;;;;;;;;;;;4971205;28;19917;-49
2023/02/25 06:06:27;;;;;;;;;;;;;;;;;;4972421;28;20248;-48
2023/02/25 06:08:53;;;;;;;;;;;;;;;;;;4970792;28;19910;-45
2023/02/25 06:11:19;;;;;;;;;;;;;;;;;;4972102;28;19942;-45
2023/02/25 06:13:45;;;;;;;;;;;;;;;;;;4971717;28;19918;-49
2023/02/25 06:16:10;;;;;;;;;;;;;;;;;;4970958;28;20339;-45
2023/02/25 06:18:36;;;;;;;;;;;;;;;;;;4971288;28;20000;-45
2023/02/25 06:21:04;;;;;;;;;;;;;;;;;;4971346;28;19937;-46
2023/02/25 06:23:30;;;;;;;;;;;;;;;;;;4972415;28;19914;-45
2023/02/25 06:25:56;;;;;;;;;;;;;;;;;;4971023;28;19922;-50
2023/02/25 06:28:22;;;;;;;;;;;;;;;;;;4974207;28;20252;-46
2023/02/25 06:30:48;;;;;;;;;;;;;;;;;;4970034;28;19914;-46
2023/02/25 06:33:14;;;;;;;;;;;;;;;;;;4968385;28;19926;-44
2023/02/25 06:35:40;;;;;;;;;;;;;;;;;;4971840;28;20009;-47
2023/02/25 06:38:06;;;;;;;;;;;;;;;;;;4971892;28;19910;-44
2023/02/25 06:40:32;;;;;;;;;;;;;;;;;;4972508;28;19910;-45
2023/02/25 06:42:58;;;;;;;;;;;;;;;;;;4971033;28;19910;-45
2023/02/25 06:45:24;;;;;;;;;;;;;;;;;;4961277;28;20457;-45
2023/02/25 06:47:49;;;;;;;;;;;;;;;;;;4970815;28;20029;-44
2023/02/25 06:50:16;;;;;;;;;;;;;;;;;;4966411;28;19917;-45
2023/02/25 06:52:42;;;;;;;;;;;;;;;;;;4967171;28;19917;-46
2023/02/25 06:55:08;;;;;;;;;;;;;;;;;;4968141;28;19918;-45
2023/02/25 06:57:33;;;;;;;;;;;;;;;;;;4969705;28;19965;-46
2023/02/25 06:59:59;;;;;;;;;;;;;;;;;;4975013;28;20485;-44
2023/02/25 07:02:25;;;;;;;;;;;;;;;;;;4970971;28;19910;-46
2023/02/25 07:04:51;;;;;;;;;;;;;;;;;;4969878;28;19910;-47
2023/02/25 07:07:17;;;;;;;;;;;;;;;;;;4969887;28;19965;-46
2023/02/25 07:09:43;;;;;;;;;;;;;;;;;;4969823;28;19961;-49
2023/02/25 07:12:09;;;;;;;;;;;;;;;;;;4970235;28;19960;-47
2023/02/25 07:14:36;;;;;;;;;;;;;;;;;;4967530;28;20260;-48
2023/02/25 07:17:02;;;;;;;;;;;;;;;;;;4970652;28;19910;-45
2023/02/25 07:19:28;;;;;;;;;;;;;;;;;;4969142;28;19945;-45
2023/02/25 07:21:54;;;;;;;;;;;;;;;;;;4970582;28;19960;-45
2023/02/25 07:24:20;;;;;;;;;;;;;;;;;;4968515;28;19914;-45
2023/02/25 07:26:46;;;;;;;;;;;;;;;;;;4967610;28;19918;-45
2023/02/25 07:29:12;;;;;;;;;;;;;;;;;;4968851;28;19932;-45
2023/02/25 07:31:38;;;;;;;;;;;;;;;;;;4973224;28;19914;-46
2023/02/25 07:34:04;;;;;;;;;;;;;;;;;;4965522;28;19925;-45
2023/02/25 07:36:31;;;;;;;;;;;;;;;;;;4973443;28;19961;-46
2023/02/25 07:38:57;;;;;;;;;;;;;;;;;;4971619;28;20386;-45
2023/02/25 07:41:23;;;;;;;;;;;;;;;;;;4973632;28;19964;-47
2023/02/25 07:43:49;;;;;;;;;;;;;;;;;;4971896;28;20004;-44
2023/02/25 07:46:15;;;;;;;;;;;;;;;;;;4976063;28;20363;-45
2023/02/25 07:48:41;;;;;;;;;;;;;;;;;;4972416;28;19910;-46
2023/02/25 07:51:07;;;;;;;;;;;;;;;;;;4971754;28;19964;-44
2023/02/25 07:53:32;;;;;;;;;;;;;;;;;;4973348;28;19918;-44
2023/02/25 07:55:58;;;;;;;;;;;;;;;;;;4972738;28;19906;-46
2023/02/25 07:58:24;;;;;;;;;;;;;;;;;;4972609;28;19918;-45
2023/02/25 08:00:50;;;;;;;;;;;;;;;;;;4973844;28;19962;-45
2023/02/25 08:03:16;;;;;;;;;;;;;;;;;;4971926;28;19941;-44
2023/02/25 08:05:42;;;;;;;;;;;;;;;;;;4974065;28;19972;-46
2023/02/25 08:08:08;;;;;;;;;;;;;;;;;;4968565;28;19946;-44
2023/02/25 08:10:34;;;;;;;;;;;;;;;;;;4973042;28;19919;-45
2023/02/25 08:13:00;;;;;;;;;;;;;;;;;;4971858;28;19984;-45
2023/02/25 08:15:26;;;;;;;;;;;;;;;;;;4972692;28;19910;-45
2023/02/25 08:17:54;;;;;;;;;;;;;;;;;;4972798;28;19945;-45
2023/02/25 08:20:20;;;;;;;;;;;;;;;;;;4971818;28;19910;-44
2023/02/25 08:22:46;;;;;;;;;;;;;;;;;;4973777;28;20386;-44
2023/02/25 08:25:12;;;;;;;;;;;;;;;;;;4966575;28;20504;-45
2023/02/25 08:27:38;;;;;;;;;;;;;;;;;;4969045;28;19957;-44
2023/02/25 08:30:07;;;;;;;;;;;;;;;;;;4970259;28;19997;-43
2023/02/25 08:32:34;;;;;;;;;;;;;;;;;;4969438;28;20260;-44
2023/02/25 08:34:59;;;;;;;;;;;;;;;;;;4970418;28;20267;-46
2023/02/25 08:37:26;;;;;;;;;;;;;;;;;;4971661;28;19906;-48
2023/02/25 08:39:51;;;;;;;;;;;;;;;;;;4970703;28;19910;-47
2023/02/25 08:42:17;;;;;;;;;;;;;;;;;;4969289;28;19916;-46
2023/02/25 08:44:43;;;;;;;;;;;;;;;;;;4971767;28;19910;-46
2023/02/25 08:47:09;;;;;;;;;;;;;;;;;;4974360;28;19912;-45
2023/02/25 08:49:35;;;;;;;;;;;;;;;;;;4971328;28;19910;-44
2023/02/25 08:52:01;;;;;;;;;;;;;;;;;;4969738;28;19972;-47
2023/02/25 08:54:27;;;;;;;;;;;;;;;;;;4970169;28;19925;-47
2023/02/25 08:56:54;;;;;;;;;;;;;;;;;;4972399;28;19918;-45
2023/02/25 08:59:20;;;;;;;;;;;;;;;;;;4970557;28;19924;-49
2023/02/25 09:01:47;;;;;;;;;;;;;;;;;;4973189;28;20266;-45
2023/02/25 09:04:13;;;;;;;;;;;;;;;;;;4970241;28;20530;-47
2023/02/25 09:06:39;;;;;;;;;;;;;;;;;;4972414;28;19914;-47
2023/02/25 09:09:05;;;;;;;;;;;;;;;;;;4970638;28;19906;-47
2023/02/25 09:11:31;;;;;;;;;;;;;;;;;;4972600;28;19997;-47
2023/02/25 09:13:57;;;;;;;;;;;;;;;;;;4970257;28;20405;-45
2023/02/25 09:16:23;;;;;;;;;;;;;;;;;;4972615;28;19906;-45
2023/02/25 09:18:50;;;;;;;;;;;;;;;;;;4971008;28;20256;-45
2023/02/25 09:21:16;;;;;;;;;;;;;;;;;;4974089;28;19957;-47
2023/02/25 09:23:42;;;;;;;;;;;;;;;;;;4971132;28;19968;-46
2023/02/25 09:26:08;;;;;;;;;;;;;;;;;;4972126;28;20378;-45
2023/02/25 09:28:34;;;;;;;;;;;;;;;;;;4974293;28;19949;-44
2023/02/25 09:31:01;;;;;;;;;;;;;;;;;;4972262;28;19932;-44
2023/02/25 09:33:27;;;;;;;;;;;;;;;;;;4973258;28;19914;-44
2023/02/25 09:35:53;;;;;;;;;;;;;;;;;;4971522;28;19985;-44
2023/02/25 09:38:19;;;;;;;;;;;;;;;;;;4972129;28;19906;-43
2023/02/25 09:40:44;;;;;;;;;;;;;;;;;;4967651;28;20423;-44
2023/02/25 09:43:10;;;;;;;;;;;;;;;;;;4972957;28;20009;-43
2023/02/25 09:45:36;;;;;;;;;;;;;;;;;;4972608;28;19910;-43
2023/02/25 09:48:02;;;;;;;;;;;;;;;;;;4970780;28;19929;-43
2023/02/25 09:50:28;;;;;;;;;;;;;;;;;;4972962;28;20279;-44
2023/02/25 09:52:54;;;;;;;;;;;;;;;;;;4972426;28;19998;-45
2023/02/25 09:55:20;;;;;;;;;;;;;;;;;;4972411;28;19921;-42
2023/02/25 09:57:46;;;;;;;;;;;;;;;;;;4975197;28;19973;-44
2023/02/25 10:00:12;;;;;;;;;;;;;;;;;;4970340;28;19902;-44
2023/02/25 10:02:37;;;;;;;;;;;;;;;;;;4972722;28;20366;-42
2023/02/25 10:05:03;;;;;;;;;;;;;;;;;;4971579;28;19910;-43
2023/02/25 10:07:29;;;;;;;;;;;;;;;;;;4972359;28;20013;-42
2023/02/25 10:09:55;;;;;;;;;;;;;;;;;;4972167;28;20283;-43
2023/02/25 10:12:21;;;;;;;;;;;;;;;;;;4967663;28;19913;-43
2023/02/25 10:14:47;;;;;;;;;;;;;;;;;;4970869;28;20012;-46
2023/02/25 10:17:13;;;;;;;;;;;;;;;;;;4964097;28;19967;-46
2023/02/25 10:19:39;;;;;;;;;;;;;;;;;;4969757;28;20334;-47
2023/02/25 10:22:05;;;;;;;;;;;;;;;;;;4969165;28;19912;-44
2023/02/25 10:24:33;;;;;;;;;;;;;;;;;;4970908;28;20366;-44
2023/02/25 10:26:59;;;;;;;;;;;;;;;;;;4971672;28;19910;-45
2023/02/25 10:29:27;;;;;;;;;;;;;;;;;;4971786;28;19910;-45
2023/02/25 10:31:52;;;;;;;;;;;;;;;;;;4971172;28;19964;-43
2023/02/25 10:34:19;;;;;;;;;;;;;;;;;;4971721;28;19962;-46
2023/02/25 10:36:45;;;;;;;;;;;;;;;;;;4953925;28;20008;-45
2023/02/25 10:39:11;;;;;;;;;;;;;;;;;;4971728;28;19920;-43
2023/02/25 10:41:36;;;;;;;;;;;;;;;;;;4972258;28;19910;-44
2023/02/25 10:44:02;;;;;;;;;;;;;;;;;;4970554;28;20260;-43
2023/02/25 10:46:28;;;;;;;;;;;;;;;;;;4971334;28;19910;-45
2023/02/25 10:48:55;;;;;;;;;;;;;;;;;;4971464;28;19997;-43
2023/02/25 10:51:21;;;;;;;;;;;;;;;;;;4972486;28;20005;-46
2023/02/25 10:53:46;;;;;;;;;;;;;;;;;;4972928;28;19996;-47
2023/02/25 10:56:12;;;;;;;;;;;;;;;;;;4970345;28;19914;-45
2023/02/25 10:58:39;;;;;;;;;;;;;;;;;;4970423;28;19918;-46
2023/02/25 11:01:05;;;;;;;;;;;;;;;;;;4970293;28;20294;-43
2023/02/25 11:03:31;;;;;;;;;;;;;;;;;;4972425;28;19910;-45
2023/02/25 11:05:57;;;;;;;;;;;;;;;;;;4974788;28;19913;-46
2023/02/25 11:08:23;;;;;;;;;;;;;;;;;;4975058;28;21477;-44
2023/02/25 11:10:49;;;;;;;;;;;;;;;;;;4975555;28;19917;-45
2023/02/25 11:13:14;;;;;;;;;;;;;;;;;;4974819;28;19922;-43
2023/02/25 11:15:42;;;;;;;;;;;;;;;;;;4979806;28;19914;-43
2023/02/25 11:18:08;;;;;;;;;;;;;;;;;;4975549;28;19906;-43
2023/02/25 11:20:34;;;;;;;;;;;;;;;;;;4975389;28;19965;-44
2023/02/25 11:22:59;;;;;;;;;;;;;;;;;;4975719;28;20330;-46
2023/02/25 11:25:25;;;;;;;;;;;;;;;;;;4975188;28;20267;-44
2023/02/25 11:27:52;;;;;;;;;;;;;;;;;;4974706;28;20378;-45
2023/02/25 11:30:18;;;;;;;;;;;;;;;;;;4971600;28;19921;-44
2023/02/25 11:32:44;;;;;;;;;;;;;;;;;;4975458;28;19906;-43
2023/02/25 11:35:10;;;;;;;;;;;;;;;;;;4974311;28;19993;-45
2023/02/25 11:37:36;;;;;;;;;;;;;;;;;;4975136;28;19910;-47
2023/02/25 11:40:06;;;;;;;;;;;;;;;;;;4972039;28;20430;-44
2023/02/25 11:42:32;;;;;;;;;;;;;;;;;;4976164;28;19906;-44
2023/02/25 11:44:58;;;;;;;;;;;;;;;;;;4973975;28;19910;-44
2023/02/25 11:47:24;;;;;;;;;;;;;;;;;;4973282;28;19910;-44
2023/02/25 11:49:50;;;;;;;;;;;;;;;;;;4977880;28;19914;-46
2023/02/25 11:52:16;;;;;;;;;;;;;;;;;;4975659;28;19961;-43
2023/02/25 11:54:42;;;;;;;;;;;;;;;;;;4974853;28;19955;-43
2023/02/25 11:57:07;;;;;;;;;;;;;;;;;;4967151;28;19910;-44
2023/02/25 11:59:33;;;;;;;;;;;;;;;;;;4972898;28;20327;-43
2023/02/25 12:01:59;;;;;;;;;;;;;;;;;;4971877;28;20008;-43
2023/02/25 12:04:25;;;;;;;;;;;;;;;;;;4974964;28;20274;-44
2023/02/25 12:06:51;;;;;;;;;;;;;;;;;;4968751;28;19957;-44
2023/02/25 12:09:17;;;;;;;;;;;;;;;;;;4971579;28;19949;-46
2023/02/25 12:11:43;;;;;;;;;;;;;;;;;;4968828;28;19906;-43
2023/02/25 12:14:09;;;;;;;;;;;;;;;;;;4972819;28;19918;-46
2023/02/25 12:16:35;;;;;;;;;;;;;;;;;;4973767;28;19914;-45
2023/02/25 12:19:00;;;;;;;;;;;;;;;;;;4972778;28;20287;-45
2023/02/25 12:21:26;;;;;;;;;;;;;;;;;;4974698;28;19917;-45
2023/02/25 12:23:52;;;;;;;;;;;;;;;;;;4973341;28;19910;-45
2023/02/25 12:26:18;;;;;;;;;;;;;;;;;;4973541;28;19910;-43
2023/02/25 12:28:46;;;;;;;;;;;;;;;;;;4974832;28;19914;-43
2023/02/25 12:31:12;;;;;;;;;;;;;;;;;;4973075;28;19953;-44
2023/02/25 12:33:38;;;;;;;;;;;;;;;;;;4973537;28;19968;-43
2023/02/25 12:36:04;;;;;;;;;;;;;;;;;;4972776;28;19918;-44
2023/02/25 12:38:31;;;;;;;;;;;;;;;;;;4974367;28;19914;-44
2023/02/25 12:40:57;;;;;;;;;;;;;;;;;;4972869;28;19910;-44
2023/02/25 12:43:23;;;;;;;;;;;;;;;;;;4973195;28;19917;-45
2023/02/25 12:45:49;;;;;;;;;;;;;;;;;;4973956;28;20008;-44
2023/02/25 12:48:15;;;;;;;;;;;;;;;;;;4967524;28;19965;-48
2023/02/25 12:50:41;;;;;;;;;;;;;;;;;;4972852;28;19910;-43
2023/02/25 12:53:07;;;;;;;;;;;;;;;;;;4972722;28;19949;-44
2023/02/25 12:55:33;;;;;;;;;;;;;;;;;;4971776;28;19910;-47
2023/02/25 12:57:59;;;;;;;;;;;;;;;;;;4970545;28;19917;-44
2023/02/25 13:00:25;;;;;;;;;;;;;;;;;;4973767;28;19997;-47
2023/02/25 13:02:51;;;;;;;;;;;;;;;;;;4974122;28;19989;-48
2023/02/25 13:05:17;;;;;;;;;;;;;;;;;;4968170;28;19953;-45
2023/02/25 13:07:43;;;;;;;;;;;;;;;;;;4972090;28;20004;-45
2023/02/25 13:10:09;;;;;;;;;;;;;;;;;;4972910;28;19993;-45
2023/02/25 13:12:35;;;;;;;;;;;;;;;;;;4973195;28;19917;-44
2023/02/25 13:15:01;;;;;;;;;;;;;;;;;;4972467;28;20395;-44
2023/02/25 13:17:26;;;;;;;;;;;;;;;;;;4973368;28;19910;-47
2023/02/25 13:19:52;;;;;;;;;;;;;;;;;;4965937;28;19942;-44
2023/02/25 13:22:18;;;;;;;;;;;;;;;;;;4972587;28;19919;-45
2023/02/25 13:24:45;;;;;;;;;;;;;;;;;;4973893;28;19957;-43
2023/02/25 13:27:11;;;;;;;;;;;;;;;;;;4973223;28;20061;-44
2023/02/25 13:29:37;;;;;;;;;;;;;;;;;;4973444;28;20414;-45
2023/02/25 13:32:02;;;;;;;;;;;;;;;;;;4971732;28;19917;-43
2023/02/25 13:34:28;;;;;;;;;;;;;;;;;;4968299;28;19926;-43
2023/02/25 13:36:54;;;;;;;;;;;;;;;;;;4973302;28;20615;-44
2023/02/25 13:39:20;;;;;;;;;;;;;;;;;;4973343;28;19988;-44
2023/02/25 13:41:46;;;;;;;;;;;;;;;;;;4965184;28;19910;-46
2023/02/25 13:44:12;;;;;;;;;;;;;;;;;;4969302;28;20083;-45
2023/02/25 13:46:38;;;;;;;;;;;;;;;;;;4976946;28;19914;-44
2023/02/25 13:49:04;;;;;;;;;;;;;;;;;;4970687;28;19913;-45
2023/02/25 13:51:30;;;;;;;;;;;;;;;;;;4963528;28;20053;-45
2023/02/25 13:53:56;;;;;;;;;;;;;;;;;;4967992;28;19918;-45
2023/02/25 13:56:22;;;;;;;;;;;;;;;;;;4968687;28;19917;-46
2023/02/25 13:58:48;;;;;;;;;;;;;;;;;;4971636;28;19913;-46
2023/02/25 14:01:14;;;;;;;;;;;;;;;;;;4970979;28;19949;-44
2023/02/25 14:03:40;;;;;;;;;;;;;;;;;;4977083;28;20026;-45
2023/02/25 14:06:07;;;;;;;;;;;;;;;;;;4969630;28;19953;-48
2023/02/25 14:08:33;;;;;;;;;;;;;;;;;;4970461;28;20441;-44
2023/02/25 14:11:00;;;;;;;;;;;;;;;;;;4966171;28;20412;-47
2023/02/25 14:13:25;;;;;;;;;;;;;;;;;;4971175;28;19928;-45
2023/02/25 14:15:51;;;;;;;;;;;;;;;;;;4968149;28;20032;-45
2023/02/25 14:18:17;;;;;;;;;;;;;;;;;;4969615;28;20396;-45
2023/02/25 14:20:43;;;;;;;;;;;;;;;;;;4969838;28;19917;-44
2023/02/25 14:23:10;;;;;;;;;;;;;;;;;;4970072;28;20339;-44
2023/02/25 14:25:36;;;;;;;;;;;;;;;;;;4965018;28;20020;-45
2023/02/25 14:28:04;;;;;;;;;;;;;;;;;;4968636;28;20411;-46
2023/02/25 14:30:30;;;;;;;;;;;;;;;;;;4969799;28;20270;-46
2023/02/25 14:32:56;;;;;;;;;;;;;;;;;;4968292;28;19910;-45
2023/02/25 14:35:22;;;;;;;;;;;;;;;;;;4970628;28;19913;-46
2023/02/25 14:37:48;;;;;;;;;;;;;;;;;;4970131;28;19910;-46
2023/02/25 14:40:14;;;;;;;;;;;;;;;;;;4951644;28;19921;-45
2023/02/25 14:42:40;;;;;;;;;;;;;;;;;;4969751;28;19910;-45
2023/02/25 14:45:06;;;;;;;;;;;;;;;;;;4969412;28;19910;-45
2023/02/25 14:47:32;;;;;;;;;;;;;;;;;;4968533;28;19910;-44
2023/02/25 14:49:58;;;;;;;;;;;;;;;;;;4969233;28;19996;-45
2023/02/25 14:52:24;;;;;;;;;;;;;;;;;;4970569;28;19932;-45
2023/02/25 14:54:49;;;;;;;;;;;;;;;;;;4969921;28;19922;-46
2023/02/25 14:57:15;;;;;;;;;;;;;;;;;;4969357;28;20412;-45
2023/02/25 14:59:41;;;;;;;;;;;;;;;;;;4974029;28;19914;-45
2023/02/25 15:02:07;;;;;;;;;;;;;;;;;;4969951;28;19910;-45
2023/02/25 15:04:34;;;;;;;;;;;;;;;;;;4971502;28;19996;-44
2023/02/25 15:07:00;;;;;;;;;;;;;;;;;;4964659;28;19910;-44
2023/02/25 15:09:26;;;;;;;;;;;;;;;;;;4964148;28;19906;-49
2023/02/25 15:11:52;;;;;;;;;;;;;;;;;;4969450;28;19907;-45
2023/02/25 15:14:18;;;;;;;;;;;;;;;;;;4969676;28;19926;-45
2023/02/25 15:16:44;;;;;;;;;;;;;;;;;;4971063;28;19906;-45
2023/02/25 15:19:10;;;;;;;;;;;;;;;;;;4968312;28;19918;-44
2023/02/25 15:21:36;;;;;;;;;;;;;;;;;;4969908;28;20008;-46
2023/02/25 15:24:02;;;;;;;;;;;;;;;;;;4968809;28;19965;-45
2023/02/25 15:26:28;;;;;;;;;;;;;;;;;;4970465;28;19913;-45
2023/02/25 15:28:54;;;;;;;;;;;;;;;;;;4969853;28;20237;-47
2023/02/25 15:31:20;;;;;;;;;;;;;;;;;;4969538;28;19918;-44
2023/02/25 15:33:46;;;;;;;;;;;;;;;;;;4969881;28;19925;-47
2023/02/25 15:36:12;;;;;;;;;;;;;;;;;;4968795;28;20497;-47
2023/02/25 15:38:38;;;;;;;;;;;;;;;;;;4971467;28;19914;-46
2023/02/25 15:41:04;;;;;;;;;;;;;;;;;;4967862;28;19910;-46
2023/02/25 15:43:30;;;;;;;;;;;;;;;;;;4970122;28;20201;-43
2023/02/25 15:45:55;;;;;;;;;;;;;;;;;;4971867;28;19907;-46
2023/02/25 15:48:21;;;;;;;;;;;;;;;;;;4970586;28;19910;-43
2023/02/25 15:50:47;;;;;;;;;;;;;;;;;;4971594;28;19953;-47
2023/02/25 15:53:14;;;;;;;;;;;;;;;;;;4972547;28;19917;-46
2023/02/25 15:55:40;;;;;;;;;;;;;;;;;;4972451;28;20274;-44
2023/02/25 15:58:06;;;;;;;;;;;;;;;;;;4975576;28;19910;-45
2023/02/25 16:00:32;;;;;;;;;;;;;;;;;;4973460;28;20371;-44
2023/02/25 16:02:58;;;;;;;;;;;;;;;;;;4970969;28;19914;-45
2023/02/25 16:05:24;;;;;;;;;;;;;;;;;;4974482;28;19968;-47
2023/02/25 16:07:50;;;;;;;;;;;;;;;;;;4976079;28;19907;-44
2023/02/25 16:10:16;;;;;;;;;;;;;;;;;;4973597;28;19922;-45
2023/02/25 16:12:42;;;;;;;;;;;;;;;;;;4973728;28;19925;-43
2023/02/25 16:15:08;;;;;;;;;;;;;;;;;;4971623;28;19918;-45
2023/02/25 16:17:33;;;;;;;;;;;;;;;;;;4973931;28;19914;-44
2023/02/25 16:19:59;;;;;;;;;;;;;;;;;;4972805;28;19917;-44
2023/02/25 16:22:25;;;;;;;;;;;;;;;;;;4974122;28;19906;-43
2023/02/25 16:24:51;;;;;;;;;;;;;;;;;;4977418;28;20389;-44
2023/02/25 16:27:17;;;;;;;;;;;;;;;;;;4973515;28;19910;-46
2023/02/25 16:29:43;;;;;;;;;;;;;;;;;;4973153;28;19918;-45
2023/02/25 16:32:09;;;;;;;;;;;;;;;;;;4971967;28;19914;-45
2023/02/25 16:34:37;;;;;;;;;;;;;;;;;;4973215;28;19918;-46
2023/02/25 16:37:02;;;;;;;;;;;;;;;;;;4971992;28;19914;-47